Time,TemperatureF,DewpointF,PressureIn,WindDirection,WindDirectionDegrees,WindSpeedMPH,WindSpeedGustMPH,Humidity,HourlyPrecipIn,Conditions,Clouds,dailyrainin,SoftwareType,DateUTC
2013-02-18 00:05:00,19.2,6.5,29.99,West,270,7.3,-999.0,57,-99.99,,,0.00,Acu-Link.com,2013-02-18 05:05:00,
2013-02-18 00:20:00,18.9,6.6,29.99,West,270,6.8,-999.0,58,-99.99,,,0.00,Acu-Link.com,2013-02-18 05:20:00,
2013-02-18 00:36:00,18.3,6.0,29.99,WSW,247,4.7,-999.0,58,-99.99,,,0.00,Acu-Link.com,2013-02-18 05:36:00,
2013-02-18 00:51:00,18.1,6.6,30.00,WSW,247,3.7,-999.0,60,-99.99,,,0.00,Acu-Link.com,2013-02-18 05:51:00,
2013-02-18 01:06:00,18.0,6.5,30.01,WSW,247,3.2,-999.0,60,-99.99,,,0.00,Acu-Link.com,2013-02-18 06:06:00,
2013-02-18 01:21:00,18.0,6.1,30.02,West,270,3.7,-999.0,59,-99.99,,,0.00,Acu-Link.com,2013-02-18 06:21:00,
2013-02-18 01:37:00,18.1,5.8,30.01,West,270,4.2,-999.0,58,-99.99,,,0.00,Acu-Link.com,2013-02-18 06:37:00,
2013-02-18 01:52:00,18.1,6.2,30.02,West,270,4.2,-999.0,59,-99.99,,,0.00,Acu-Link.com,2013-02-18 06:52:00,
2013-02-18 02:07:00,17.1,6.7,30.03,SW,225,3.7,-999.0,63,-99.99,,,0.00,Acu-Link.com,2013-02-18 07:07:00,
2013-02-18 02:23:00,16.7,6.3,30.03,WSW,247,3.2,-999.0,63,-99.99,,,0.00,Acu-Link.com,2013-02-18 07:23:00,
2013-02-18 02:38:00,17.1,6.7,30.03,WSW,247,4.2,-999.0,63,-99.99,,,0.00,Acu-Link.com,2013-02-18 07:38:00,
2013-02-18 02:53:00,16.7,6.7,30.04,SW,225,4.7,-999.0,64,-99.99,,,0.00,Acu-Link.com,2013-02-18 07:53:00,
2013-02-18 03:08:00,16.2,6.2,30.03,SW,225,3.2,-999.0,64,-99.99,,,0.00,Acu-Link.com,2013-02-18 08:08:00,
2013-02-18 03:24:00,16.5,6.5,30.04,WSW,247,3.2,-999.0,64,-99.99,,,0.00,Acu-Link.com,2013-02-18 08:24:00,
2013-02-18 03:39:00,16.5,6.5,30.04,WSW,247,3.7,-999.0,64,-99.99,,,0.00,Acu-Link.com,2013-02-18 08:39:00,
2013-02-18 03:54:00,16.7,7.0,30.04,WSW,247,4.7,-999.0,65,-99.99,,,0.00,Acu-Link.com,2013-02-18 08:54:00,
2013-02-18 04:18:00,16.0,7.3,30.04,WSW,247,3.7,-999.0,68,-99.99,,,0.00,Acu-Link.com,2013-02-18 09:18:00,
2013-02-18 04:34:00,16.7,7.3,30.04,WSW,247,4.7,-999.0,66,-99.99,,,0.00,Acu-Link.com,2013-02-18 09:34:00,
2013-02-18 04:49:00,16.7,7.3,30.05,WSW,247,5.3,-999.0,66,-99.99,,,0.00,Acu-Link.com,2013-02-18 09:49:00,
2013-02-18 05:04:00,16.2,7.2,30.07,WSW,247,4.2,-999.0,67,-99.99,,,0.00,Acu-Link.com,2013-02-18 10:04:00,
2013-02-18 05:20:00,16.9,7.5,30.07,West,270,4.7,-999.0,66,-99.99,,,0.00,Acu-Link.com,2013-02-18 10:20:00,
2013-02-18 05:35:00,17.4,8.0,30.08,WSW,247,3.7,-999.0,66,-99.99,,,0.00,Acu-Link.com,2013-02-18 10:35:00,
2013-02-18 05:50:00,17.2,7.8,30.08,SW,225,5.3,-999.0,66,-99.99,,,0.00,Acu-Link.com,2013-02-18 10:50:00,
2013-02-18 06:05:00,17.1,7.7,30.08,WSW,247,3.7,-999.0,66,-99.99,,,0.00,Acu-Link.com,2013-02-18 11:05:00,
2013-02-18 06:20:00,16.9,7.9,30.09,West,270,4.2,-999.0,67,-99.99,,,0.00,Acu-Link.com,2013-02-18 11:20:00,
2013-02-18 06:36:00,17.2,8.8,30.09,WSW,247,4.2,-999.0,69,-99.99,,,0.00,Acu-Link.com,2013-02-18 11:36:00,
2013-02-18 06:51:00,17.6,9.2,30.09,WSW,247,4.7,-999.0,69,-99.99,,,0.00,Acu-Link.com,2013-02-18 11:51:00,
2013-02-18 07:07:00,18.5,9.1,30.09,WSW,247,4.7,-999.0,66,-99.99,,,0.00,Acu-Link.com,2013-02-18 12:07:00,
2013-02-18 07:22:00,18.7,9.3,30.09,WSW,247,4.2,-999.0,66,-99.99,,,0.00,Acu-Link.com,2013-02-18 12:22:00,
2013-02-18 07:37:00,19.8,9.6,30.10,SW,225,4.7,-999.0,64,-99.99,,,0.00,Acu-Link.com,2013-02-18 12:37:00,
2013-02-18 07:52:00,21.4,10.4,30.10,WSW,247,4.2,-999.0,62,-99.99,,,0.00,Acu-Link.com,2013-02-18 12:52:00,
2013-02-18 08:07:00,23.4,10.8,30.10,West,270,3.7,-999.0,58,-99.99,,,0.00,Acu-Link.com,2013-02-18 13:07:00,
2013-02-18 08:22:00,23.7,11.5,30.11,WSW,247,4.2,-999.0,59,-99.99,,,0.00,Acu-Link.com,2013-02-18 13:22:00,
2013-02-18 08:37:00,24.8,12.9,30.11,WSW,247,6.3,-999.0,60,-99.99,,,0.00,Acu-Link.com,2013-02-18 13:37:00,
2013-02-18 08:52:00,26.8,13.2,30.11,WSW,247,7.3,-999.0,56,-99.99,,,0.00,Acu-Link.com,2013-02-18 13:52:00,
2013-02-18 09:08:00,28.2,13.7,30.11,West,270,5.3,-999.0,54,-99.99,,,0.00,Acu-Link.com,2013-02-18 14:08:00,
2013-02-18 09:23:00,30.0,14.1,30.12,West,270,5.3,-999.0,51,-99.99,,,0.00,Acu-Link.com,2013-02-18 14:23:00,
2013-02-18 09:38:00,31.3,14.8,30.11,WNW,292,2.7,-999.0,50,-99.99,,,0.00,Acu-Link.com,2013-02-18 14:38:00,
2013-02-18 09:53:00,33.1,14.6,30.10,WSW,247,4.2,-999.0,46,-99.99,,,0.00,Acu-Link.com,2013-02-18 14:53:00,
2013-02-18 10:08:00,34.2,15.1,30.10,SW,225,4.2,-999.0,45,-99.99,,,0.00,Acu-Link.com,2013-02-18 15:08:00,
2013-02-18 10:24:00,35.6,15.3,30.09,WNW,292,4.2,-999.0,43,-99.99,,,0.00,Acu-Link.com,2013-02-18 15:24:00,
2013-02-18 10:39:00,37.8,16.8,30.10,West,270,4.7,-999.0,42,-99.99,,,0.00,Acu-Link.com,2013-02-18 15:39:00,
2013-02-18 10:54:00,39.4,17.7,30.09,West,270,6.3,-999.0,41,-99.99,,,0.00,Acu-Link.com,2013-02-18 15:54:00,
2013-02-18 11:09:00,40.1,17.2,30.09,SW,225,9.4,-999.0,39,-99.99,,,0.00,Acu-Link.com,2013-02-18 16:09:00,
2013-02-18 11:25:00,41.5,19.0,30.09,SW,225,7.8,-999.0,40,-99.99,,,0.00,Acu-Link.com,2013-02-18 16:25:00,
2013-02-18 11:40:00,41.9,18.8,30.08,SW,225,9.9,-999.0,39,-99.99,,,0.00,Acu-Link.com,2013-02-18 16:40:00,
2013-02-18 11:55:00,42.8,20.8,30.08,West,270,7.8,-999.0,41,-99.99,,,0.00,Acu-Link.com,2013-02-18 16:55:00,
2013-02-18 12:10:00,43.2,20.5,30.06,WSW,247,6.3,-999.0,40,-99.99,,,0.00,Acu-Link.com,2013-02-18 17:10:00,
2013-02-18 12:26:00,44.6,21.2,30.05,West,270,7.3,-999.0,39,-99.99,,,0.00,Acu-Link.com,2013-02-18 17:26:00,
2013-02-18 12:41:00,45.7,21.6,30.05,South,180,9.4,-999.0,38,-99.99,,,0.00,Acu-Link.com,2013-02-18 17:41:00,
2013-02-18 12:56:00,45.7,21.6,30.04,South,180,3.7,-999.0,38,-99.99,,,0.00,Acu-Link.com,2013-02-18 17:56:00,
2013-02-18 13:11:00,46.2,22.0,30.03,South,180,8.9,-999.0,38,-99.99,,,0.00,Acu-Link.com,2013-02-18 18:11:00,
2013-02-18 13:26:00,45.9,22.4,30.02,SW,225,11.9,-999.0,39,-99.99,,,0.00,Acu-Link.com,2013-02-18 18:26:00,
2013-02-18 13:41:00,46.4,22.2,30.02,SW,225,5.3,-999.0,38,-99.99,,,0.00,Acu-Link.com,2013-02-18 18:41:00,
2013-02-18 13:57:00,46.4,22.2,30.02,SW,225,6.8,-999.0,38,-99.99,,,0.00,Acu-Link.com,2013-02-18 18:57:00,
2013-02-18 14:27:00,46.8,21.9,30.00,SW,225,10.4,-999.0,37,-99.99,,,0.00,Acu-Link.com,2013-02-18 19:27:00,
2013-02-18 14:43:00,48.4,23.3,29.99,SSW,202,7.8,-999.0,37,-99.99,,,0.00,Acu-Link.com,2013-02-18 19:43:00,
2013-02-18 14:58:00,48.2,23.2,29.98,South,180,7.3,-999.0,37,-99.99,,,0.00,Acu-Link.com,2013-02-18 19:58:00,
2013-02-18 15:13:00,48.6,24.2,29.99,SSW,202,5.8,-999.0,38,-99.99,,,0.00,Acu-Link.com,2013-02-18 20:13:00,
2013-02-18 15:28:00,48.0,22.3,29.98,SSE,157,6.3,-999.0,36,-99.99,,,0.00,Acu-Link.com,2013-02-18 20:28:00,
2013-02-18 15:43:00,48.0,23.0,29.98,SSW,202,6.8,-999.0,37,-99.99,,,0.00,Acu-Link.com,2013-02-18 20:43:00,
2013-02-18 15:58:00,46.9,22.6,29.99,South,180,7.3,-999.0,38,-99.99,,,0.00,Acu-Link.com,2013-02-18 20:58:00,
2013-02-18 16:14:00,45.9,22.4,29.99,South,180,9.4,-999.0,39,-99.99,,,0.00,Acu-Link.com,2013-02-18 21:14:00,
2013-02-18 16:29:00,46.6,22.4,30.00,SW,225,13.0,-999.0,38,-99.99,,,0.00,Acu-Link.com,2013-02-18 21:29:00,
2013-02-18 16:44:00,46.6,22.4,29.99,SSW,202,9.9,-999.0,38,-99.99,,,0.00,Acu-Link.com,2013-02-18 21:44:00,
2013-02-18 16:59:00,45.0,22.1,30.00,SSE,157,4.7,-999.0,40,-99.99,,,0.00,Acu-Link.com,2013-02-18 21:59:00,
2013-02-18 17:14:00,44.4,22.2,30.01,South,180,10.4,-999.0,41,-99.99,,,0.00,Acu-Link.com,2013-02-18 22:14:00,
2013-02-18 17:29:00,43.5,22.5,30.01,South,180,7.3,-999.0,43,-99.99,,,0.00,Acu-Link.com,2013-02-18 22:29:00,
2013-02-18 17:44:00,42.8,22.4,30.01,South,180,5.3,-999.0,44,-99.99,,,0.00,Acu-Link.com,2013-02-18 22:44:00,
2013-02-18 18:00:00,42.1,22.3,30.02,South,180,6.3,-999.0,45,-99.99,,,0.00,Acu-Link.com,2013-02-18 23:00:00,
2013-02-18 18:15:00,41.2,22.0,30.02,SE,135,6.8,-999.0,46,-99.99,,,0.00,Acu-Link.com,2013-02-18 23:15:00,
2013-02-18 18:30:00,40.5,22.4,30.03,SW,225,3.2,-999.0,48,-99.99,,,0.00,Acu-Link.com,2013-02-18 23:30:00,
2013-02-18 18:45:00,40.5,22.9,30.02,South,180,6.8,-999.0,49,-99.99,,,0.00,Acu-Link.com,2013-02-18 23:45:00,
2013-02-18 19:00:00,40.5,22.9,30.02,South,180,3.2,-999.0,49,-99.99,,,0.00,Acu-Link.com,2013-02-19 00:00:00,
2013-02-18 19:16:00,40.8,23.6,30.02,SSW,202,8.3,-999.0,50,-99.99,,,0.00,Acu-Link.com,2013-02-19 00:16:00,
2013-02-18 19:31:00,39.7,23.1,30.02,ESE,112,8.9,-999.0,51,-99.99,,,0.00,Acu-Link.com,2013-02-19 00:31:00,
2013-02-18 19:46:00,39.6,23.4,30.02,South,180,6.3,-999.0,52,-99.99,,,0.00,Acu-Link.com,2013-02-19 00:46:00,
2013-02-18 20:01:00,39.6,23.9,30.02,South,180,15.0,-999.0,53,-99.99,,,0.00,Acu-Link.com,2013-02-19 01:01:00,
2013-02-18 20:16:00,39.7,24.0,30.01,SE,135,7.3,-999.0,53,-99.99,,,0.00,Acu-Link.com,2013-02-19 01:16:00,
2013-02-18 20:32:00,38.7,23.5,30.01,SSW,202,6.3,-999.0,54,-99.99,,,0.00,Acu-Link.com,2013-02-19 01:32:00,
2013-02-18 20:47:00,38.8,23.6,30.01,SSW,202,5.8,-999.0,54,-99.99,,,0.00,Acu-Link.com,2013-02-19 01:47:00,
2013-02-18 21:03:00,38.8,23.6,30.01,South,180,8.3,-999.0,54,-99.99,,,0.00,Acu-Link.com,2013-02-19 02:03:00,
2013-02-18 21:18:00,39.0,23.8,30.00,SW,225,6.3,-999.0,54,-99.99,,,0.00,Acu-Link.com,2013-02-19 02:18:00,
2013-02-18 21:33:00,38.3,23.6,30.00,SSE,157,6.8,-999.0,55,-99.99,,,0.00,Acu-Link.com,2013-02-19 02:33:00,
2013-02-18 21:48:00,38.5,24.2,30.00,SSE,157,4.2,-999.0,56,-99.99,,,0.00,Acu-Link.com,2013-02-19 02:48:00,
2013-02-18 22:03:00,37.9,24.0,29.99,SSE,157,4.2,-999.0,57,-99.99,,,0.00,Acu-Link.com,2013-02-19 03:03:00,
2013-02-18 22:19:00,37.8,24.0,29.99,South,180,7.3,-999.0,57,-99.99,,,0.00,Acu-Link.com,2013-02-19 03:19:00,
2013-02-18 22:34:00,37.8,24.0,29.98,SSW,202,8.3,-999.0,57,-99.99,,,0.00,Acu-Link.com,2013-02-19 03:34:00,
2013-02-18 22:49:00,38.3,24.4,29.98,South,180,9.4,-999.0,57,-99.99,,,0.00,Acu-Link.com,2013-02-19 03:49:00,
2013-02-18 23:04:00,37.6,24.2,29.97,SSW,202,4.7,-999.0,58,-99.99,,,0.00,Acu-Link.com,2013-02-19 04:04:00,
2013-02-18 23:19:00,37.8,24.4,29.95,South,180,12.5,-999.0,58,-99.99,,,0.00,Acu-Link.com,2013-02-19 04:19:00,
2013-02-18 23:50:00,36.9,23.9,29.94,SW,225,9.4,-999.0,59,-99.99,,,0.00,Acu-Link.com,2013-02-19 04:50:00,